Het weer levert geen direct gevaar op.    Er zijn geen waarschuwingen afgegeven.

Onweer radar more information blitzortung!


Regen radar more information rain snow radar


Meteo Sauwerd

Weerstation Alkmaar Centrum

Weerstation Luyksgestel

Website Noardburgum

Weerstation Noordbergum



Select another period ( hide this area )

Eenheden Periode Custom range Directly to
Metrisch Engels Beide
Dagelijkse Wekelijkse Maandelijkse Jaarlijkse
use both date-selectors for a custom range
previous Dag
With this date

WeatherUnderground graphs for this period ( click here )


Dagelijkse Samenvatting Donderdag 18 oktober 2018
Tijd Temp. ( °C ) Dew pt. ( °C ) Wind ( km/h ) van Windvlaag ( km/h ) Luchtdruk ( hPa ) Humid.( % ) Rainrate ( cm ) Zonneschijn ( W/m2 )
Hoog15,5 12,7 17,7 NNO ( 267/721 ) 20,9 1024,3 94 0,50 483
Gemiddeld13,2 10,8 3,7 Noorden #61/195 7,9 1022,3 86 0,90 150 #98/195
Laag11,1 9,5 -   0,0 1019,9 71 -  
Dagelijkse Tabular details for Donderdag 18 oktober 2018
Tijd Temp. ( °C ) Dew pt. ( °C ) Wind ( km/h ) van Windvlaag ( km/h ) Luchtdruk ( hPa ) Humid.( % ) Rainrate ( cm ) Zonneschijn ( W/m2 )
00:04 12,1 10,8 1,4 NW 1,6 1020,2 92 - -
00:09 12,2 10,9   Windstil 1,6 1020,2 92 - -
00:14 12,2 10,9 1,4 NW 1,6 1019,9 92 - -
00:19 12,2 10,9   Windstil 1,6 1020,2 92 - -
00:24 12,3 11,0   Windstil   1019,9 92 - -
00:29 12,3 11,0   Windstil 1,6 1020,2 92 - -
00:34 12,3 11,0 1,4 NW 3,2 1020,2 92 - -
00:39 12,4 11,1 1,4 NW 1,6 1020,2 92 - -
00:44 12,4 11,1   Windstil   1020,2 92 - -
00:49 12,4 11,1   Windstil   1020,2 92 - -
00:54 12,4 11,0   Windstil 1,6 1020,2 91 - -
00:59 12,5 11,1 1,4 NW 1,6 1020,2 91 - -
01:04 12,5 11,2   Windstil   1020,5 92 - -
01:09 12,6 11,3   Windstil   1020,5 92 - -
01:14 12,6 11,3   Windstil   1020,5 92 - -
01:19 12,6 11,3   Windstil   1020,2 92 - -
01:24 12,7 11,4   Windstil   1020,2 92 - -
01:29 12,7 11,4   Windstil   1020,5 92 - -
01:34 12,7 11,4   Windstil   1020,5 92 - -
01:39 12,8 11,5   Windstil 1,6 1020,5 92 - -
01:44 12,8 11,5 1,4 NW 3,2 1020,5 92 - -
01:49 12,8 11,5   Windstil 1,6 1020,5 92 - -
01:54 12,9 11,6   Windstil 1,6 1020,5 92 - -
01:59 12,9 11,8 1,4 NW 3,2 1020,5 93 - -
02:04 13,0 11,9 3,2 NW 3,2 1020,5 93 0,30 -
02:09 13,1 12,0   Windstil 1,6 1020,5 93 0,50 -
02:14 13,3 12,2 3,2 NNW 14,5 1020,5 93 0,50 -
02:19 13,4 12,5 1,4 Noorden 11,3 1020,5 94 0,50 -
02:24 13,6 12,7   Windstil 9,7 1020,5 94 0,50 -
02:29 13,6 12,7 7,9 NW 9,7 1020,5 94 0,50 -
02:34 13,6 12,5 1,4 NNO 8,0 1020,5 93 0,50 -
02:39 13,6 12,5 3,2 NW 6,4 1020,5 93 0,50 -
02:44 13,6 12,5 3,2 NNW 9,7 1020,5 93 0,50 -
02:49 13,6 12,5 6,4 NNW 8,0 1020,5 93 0,50 -
02:54 13,6 12,5 1,4 NNO 11,3 1020,5 93 0,50 -
02:59 13,6 12,5 3,2 NNO 6,4 1020,9 93 0,50 -
03:04 13,5 12,4 3,2 NNW 4,8 1020,9 93 0,50 -
03:09 13,4 12,3 1,4 NNW 8,0 1020,9 93 0,30 -
03:14 13,4 12,3 4,7 Noorden 4,8 1020,9 93 - -
03:19 13,4 12,3 3,2 NW 4,8 1020,5 93 - -
03:24 13,3 12,2 1,4 Noorden 6,4 1020,9 93 - -
03:29 13,3 12,2 1,4 NW 4,8 1020,9 93 - -
03:34 13,3 12,2 3,2 NW 8,0 1020,9 93 - -
03:39 13,3 12,2 3,2 Noorden 4,8 1020,9 93 - -
03:44 13,2 12,1 4,7 Noorden 9,7 1020,9 93 - -
03:49 13,2 12,1 3,2 Noorden 8,0 1020,9 93 - -
03:54 13,2 11,9 1,4 Noorden 6,4 1020,9 92 - -
03:59 13,1 11,8 1,4 NW 6,4 1020,9 92 - -
04:04 13,1 11,8 4,7 NNW 9,7 1020,9 92 - -
04:09 13,0 11,7 4,7 Noorden 6,4 1020,9 92 - -
04:14 12,9 11,5 1,4 Noorden 4,8 1020,9 91 - -
04:19 12,9 11,5 3,2 Noorden 4,8 1020,9 91 - -
04:24 12,7 11,3 3,2 NNO 6,4 1020,9 91 - -
04:29 12,7 11,3 1,4 NNO 4,8 1020,9 91 - -
04:34 12,6 11,2 3,2 Noorden 6,4 1020,9 91 - -
04:39 12,6 11,3 1,4 Noorden 4,8 1020,9 92 - -
04:44 12,6 11,2 4,7 NNW 4,8 1021,2 91 - -
04:49 12,6 11,2 1,4 Noorden 4,8 1021,2 91 - -
04:54 12,5 11,2 3,2 Noorden 4,8 1021,2 92 - -
04:59 12,5 11,2 4,7 NNO 4,8 1021,2 92 - -
05:04 12,5 11,2 3,2 NNW 6,4 1021,2 92 - -
05:09 12,5 11,2 1,4 Noorden 6,4 1021,2 92 - -
05:14 12,5 11,2 1,4 NNW 4,8 1021,2 92 - -
05:19 12,5 11,2   Windstil 3,2 1021,2 92 - -
05:24 12,5 11,2 1,4 Noorden 4,8 1021,2 92 - -
05:29 12,4 11,1 4,7 Noorden 4,8 1021,2 92 - -
05:34 12,4 11,1 1,4 Noorden 6,4 1021,2 92 - -
05:39 12,3 10,9 3,2 Noorden 4,8 1021,2 91 - -
05:44 12,3 10,9 1,4 Noorden 4,8 1021,2 91 - -
05:49 12,3 11,0 3,2 Noorden 8,0 1021,2 92 - -
05:54 12,2 10,8 4,7 Noorden 4,8 1021,2 91 - -
05:59 12,2 10,8 1,4 Noorden 1,6 1021,2 91 - -
06:04 12,2 10,8 3,2 Noorden 3,2 1021,2 91 - -
06:09 12,2 10,8 1,4 Noorden 3,2 1021,2 91 - -
06:14 12,1 10,7   Windstil 3,2 1021,2 91 - -
06:19 12,1 10,7   Windstil 3,2 1021,2 91 - -
06:24 12,1 10,7 1,4 Noorden 3,2 1021,2 91 - -
06:29 12,0 10,6   Windstil 3,2 1021,2 91 - -
06:34 12,0 10,6 1,4 Noorden 3,2 1021,2 91 - -
06:39 12,0 10,6 3,2 Noorden 3,2 1021,2 91 - -
06:44 11,9 10,5 1,4 Noorden 3,2 1021,2 91 - -
06:49 11,8 10,4 1,4 Noorden 4,8 1021,2 91 - -
06:54 11,8 10,4 1,4 NNO 6,4 1021,6 91 - -
06:59 11,7 10,3 1,4 Noorden 6,4 1021,6 91 - -
07:04 11,7 10,3 1,4 Noorden 4,8 1021,6 91 - -
07:09 11,7 10,3 3,2 Noorden 4,8 1021,6 91 - -
07:14 11,7 10,3 1,4 Noorden 4,8 1021,9 91 - -
07:19 11,7 10,3   Windstil 3,2 1021,6 91 - -
07:24 11,7 10,3 4,7 NNW 4,8 1021,6 91 - -
07:29 11,7 10,3 3,2 Noorden 6,4 1021,6 91 - -
07:34 11,7 10,3 3,2 Noorden 4,8 1021,6 91 - -
07:39 11,7 10,3 3,2 Noorden 3,2 1021,9 91 - -
07:44 11,7 10,3 1,4 Noorden 4,8 1021,9 91 - -
07:49 11,7 10,3 4,7 NNW 6,4 1021,9 91 - -
07:54 11,6 10,0 3,2 Noorden 6,4 1022,2 90 - -
07:59 11,5 9,9 4,7 NNO 6,4 1022,2 90 - -
08:04 11,5 9,9 1,4 NNO 6,4 1022,2 90 - -
08:09 11,4 9,8   Windstil 4,8 1022,2 90 - 5
08:14 11,4 9,8   Windstil 4,8 1022,2 90 - 5
08:19 11,3 9,7 1,4 Noorden 3,2 1022,6 90 - 9
08:24 11,2 9,6 1,4 Noorden 3,2 1022,6 90 - 11
08:29 11,2 9,6 3,2 Noorden 3,2 1022,6 90 - 16
08:34 11,1 9,5   Windstil 3,2 1022,6 90 - 23
08:39 11,1 9,5 1,4 Noorden 3,2 1022,6 90 - 25
08:44 11,1 9,5 1,4 Noorden 4,8 1022,6 90 - 21
08:49 11,2 9,6 3,2 Noorden 6,4 1022,6 90 - 25
08:54 11,2 9,6 6,4 NNO 9,7 1022,6 90 - 30
08:59 11,3 9,7 3,2 NNO 8,0 1022,6 90 - 30
09:04 11,5 9,9 1,4 NNO 11,3 1022,6 90 - 30
09:09 11,7 9,9 4,7 NNO 11,3 1022,9 89 - 33
09:14 11,8 10,0 7,9 NNO 8,0 1022,9 89 - 42
09:19 12,0 10,1 9,7 Noorden 14,5 1022,9 88 - 40
09:24 12,1 10,0 4,7 NNO 9,7 1022,9 87 - 40
09:29 12,3 10,0 3,2 NNO 8,0 1022,9 86 - 49
09:34 12,4 10,1 3,2 NNO 6,4 1023,2 86 - 53
09:39 12,5 10,2 1,4 NNO 6,4 1023,2 86 - 53
09:44 12,6 10,3 4,7 NNO 6,4 1023,2 86 - 65
09:49 12,7 10,4 1,4 NNO 3,2 1023,2 86 - 69
09:54 12,8 10,5 4,7 Noorden 9,7 1023,2 86 - 69
09:59 12,8 10,5 1,4 Noorden 8,0 1023,2 86 - 67
10:04 12,9 10,4 6,4 NO 9,7 1023,2 85 - 72
10:09 13,0 10,5 7,9 NNO 8,0 1023,2 85 - 91
10:14 13,1 10,6 3,2 NNO 8,0 1023,2 85 - 104
10:19 13,2 10,7 3,2 NNO 6,4 1023,6 85 - 90
10:24 13,2 10,7 1,4 NNO 4,8 1023,6 85 - 93
10:29 13,3 10,8 3,2 NNO 6,4 1023,6 85 - 100
10:34 13,3 10,7 1,4 NNO 8,0 1023,6 84 - 104
10:39 13,4 10,8 1,4 NO 8,0 1023,6 84 - 118
10:44 13,5 10,8 3,2 NNO 9,7 1023,6 84 - 125
10:49 13,6 10,9 6,4 NNO 8,0 1023,6 84 - 111
10:54 13,7 10,9 6,4 NNO 11,3 1023,9 83 - 113
10:59 13,7 10,7   Windstil 8,0 1023,9 82 - 116
11:04 13,7 10,5 6,4 NNO 16,1 1023,9 81 - 100
11:09 13,8 10,6 6,4 NO 9,7 1023,9 81 - 120
11:14 13,8 10,6 6,4 Noorden 16,1 1023,9 81 - 134
11:19 13,8 10,6 4,7 NNO 12,9 1023,9 81 - 153
11:24 13,9 10,7 3,2 NNO 11,3 1023,9 81 - 151
11:29 13,9 10,3 11,1 NNO 19,3 1023,9 79 - 172
11:34 13,9 9,9 6,4 Noorden 16,1 1023,9 77 - 192
11:39 14,0 10,0 6,4 NNW 12,9 1023,9 77 - 213
11:44 14,1 10,3 4,7 Noorden 8,0 1023,9 78 - 216
11:49 14,2 10,4 4,7 NNO 11,3 1023,9 78 - 178
11:54 14,3 10,5 4,7 Noorden 16,1 1023,9 78 - 142
11:59 14,3 10,5 6,4 NNO 8,0 1023,9 78 - 163
12:04 14,4 10,4 4,7 NO 14,5 1023,9 77 - 176
12:09 14,4 10,2 11,1 NNO 14,5 1023,9 76 - 183
12:14 14,4 10,2 4,7 NNO 8,0 1024,3 76 - 162
12:19 14,4 10,2 3,2 Noorden 11,3 1024,3 76 - 169
12:24 14,4 10,0 9,7 Noorden 11,3 1024,3 75 - 225
12:29 14,6 10,4 6,4 NO 8,0 1024,3 76 - 213
12:34 14,6 10,4 6,4 NO 12,9 1024,3 76 - 186
12:39 14,6 10,4 3,2 NNO 6,4 1024,3 76 - 192
12:44 14,7 10,3 6,4 NNO 11,3 1024,3 75 - 172
12:49 14,7 10,3 3,2 Noorden 14,5 1024,3 75 - 214
12:54 14,8 10,2 11,1 NO 16,1 1024,3 74 - 202
12:59 14,8 10,2   Windstil 14,5 1023,9 74 - 360
13:04 14,8 10,4 6,4 NNO 16,1 1023,9 75 - 376
13:09 15,1 10,5 4,7 NNO 16,1 1023,9 74 - 483
13:14 15,2 10,4 7,9 Noorden 20,9 1023,9 73 - 146
13:19 15,2 10,4 4,7 NNO 14,5 1023,9 73 - 172
13:24 15,2 10,6 6,4 NO 17,7 1023,9 74 - 165
13:29 15,1 10,7 4,7 NNO 14,5 1023,9 75 - 155
13:34 15,1 10,9 17,7 NO 17,7 1023,9 76 - 239
13:39 15,1 10,5 11,1 NNO 17,7 1023,9 74 - 279
13:44 14,9 10,3 4,7 NNO 8,0 1023,9 74 - 181
13:49 15,0 10,6 4,7 Noorden 6,4 1023,9 75 - 346
13:54 15,1 10,7 7,9 Noorden 16,1 1023,9 75 - 327
13:59 15,1 10,7 7,9 NO 16,1 1023,9 75 - 315
14:04 15,1 10,7 6,4 NO 8,0 1023,6 75 - 323
14:09 15,2 10,4 6,4 Noorden 14,5 1023,9 73 - 381
14:14 15,3 10,5 7,9 NNO 14,5 1023,9 73 - 274
14:19 15,3 10,9 6,4 NO 16,1 1023,9 75 - 381
14:24 15,3 10,9 6,4 NNO 14,5 1023,9 75 - 176
14:29 15,3 10,7 4,7 Oosten 14,5 1023,9 74 - 134
14:34 15,3 10,7 7,9 NO 8,0 1023,9 74 - 295
14:39 15,3 10,5 4,7 Oosten 12,9 1023,9 73 - 248
14:44 15,3 10,3 13,0 NNO 12,9 1023,9 72 - 288
14:49 15,2 10,2 3,2 NNO 14,5 1023,9 72 - 311
14:54 15,2 10,2 3,2 NO 8,0 1023,9 72 - 431
14:59 15,4 10,6 11,1 NO 19,3 1023,9 73 - 392
15:04 15,5 10,3 6,4 Noorden 14,5 1023,9 71 - 105
15:09 15,4 10,2 4,7 NO 9,7 1023,9 71 - 104
15:14 15,3 10,1 1,4 NO 16,1 1023,9 71 - 100
15:19 15,2 10,0 6,4 NO 17,7 1023,9 71 - 230
15:24 15,2 10,6 7,9 NNO 19,3 1023,9 74 - 98
15:29 15,1 10,5 6,4 NO 11,3 1023,9 74 - 86
15:34 14,9 10,5 7,9 Noorden 16,1 1023,9 75 - 91
15:39 14,9 10,3 1,4 NO 16,1 1023,9 74 - 77
15:44 15,1 10,5 6,4 Oosten 9,7 1023,9 74 - 102
15:49 15,1 10,7 14,3 NO 14,5 1023,9 75 - 149
15:54 15,2 10,4 6,4 NNO 16,1 1023,9 73 - 98
15:59 15,2 10,6 13,0 NNO 14,5 1023,9 74 - 79
16:04 15,1 10,5 4,7 NNO 6,4 1023,9 74 - 42
16:09 14,9 10,3 9,7 NO 11,3 1023,9 74 - 39
16:14 14,7 10,3 4,7 NNO 8,0 1023,9 75 - 46
Dagelijkse Samenvatting Donderdag 18 oktober 2018
Tijd Temp. ( °C ) Dew pt. ( °C ) Wind ( km/h ) van Windvlaag ( km/h ) Luchtdruk ( hPa ) Humid.( % ) Rainrate ( cm ) Zonneschijn ( W/m2 )
Hoog15,5 12,7 17,7 NNO ( 267/721 ) 20,9 1024,3 94 0,50 483
Gemiddeld13,2 10,8 3,7 Noorden #61/195 7,9 1022,3 86 0,90 150 #98/195
Laag11,1 9,5 -   0,0 1019,9 71 -  
Dagelijkse Tabular details for Donderdag 18 oktober 2018
Tijd Temp. ( °C ) Dew pt. ( °C ) Wind ( km/h ) van Windvlaag ( km/h ) Luchtdruk ( hPa ) Humid.( % ) Rainrate ( cm ) Zonneschijn ( W/m2 )
00:04 12,1 10,8 1,4 NW 1,6 1020,2 92 - -
00:09 12,2 10,9   Windstil 1,6 1020,2 92 - -
00:14 12,2 10,9 1,4 NW 1,6 1019,9 92 - -
00:19 12,2 10,9   Windstil 1,6 1020,2 92 - -
00:24 12,3 11,0   Windstil   1019,9 92 - -
00:29 12,3 11,0   Windstil 1,6 1020,2 92 - -
00:34 12,3 11,0 1,4 NW 3,2 1020,2 92 - -
00:39 12,4 11,1 1,4 NW 1,6 1020,2 92 - -
00:44 12,4 11,1   Windstil   1020,2 92 - -
00:49 12,4 11,1   Windstil   1020,2 92 - -
00:54 12,4 11,0   Windstil 1,6 1020,2 91 - -
00:59 12,5 11,1 1,4 NW 1,6 1020,2 91 - -
01:04 12,5 11,2   Windstil   1020,5 92 - -
01:09 12,6 11,3   Windstil   1020,5 92 - -
01:14 12,6 11,3   Windstil   1020,5 92 - -
01:19 12,6 11,3   Windstil   1020,2 92 - -
01:24 12,7 11,4   Windstil   1020,2 92 - -
01:29 12,7 11,4   Windstil   1020,5 92 - -
01:34 12,7 11,4   Windstil   1020,5 92 - -
01:39 12,8 11,5   Windstil 1,6 1020,5 92 - -
01:44 12,8 11,5 1,4 NW 3,2 1020,5 92 - -
01:49 12,8 11,5   Windstil 1,6 1020,5 92 - -
01:54 12,9 11,6   Windstil 1,6 1020,5 92 - -
01:59 12,9 11,8 1,4 NW 3,2 1020,5 93 - -
02:04 13,0 11,9 3,2 NW 3,2 1020,5 93 0,30 -
02:09 13,1 12,0   Windstil 1,6 1020,5 93 0,50 -
02:14 13,3 12,2 3,2 NNW 14,5 1020,5 93 0,50 -
02:19 13,4 12,5 1,4 Noorden 11,3 1020,5 94 0,50 -
02:24 13,6 12,7   Windstil 9,7 1020,5 94 0,50 -
02:29 13,6 12,7 7,9 NW 9,7 1020,5 94 0,50 -
02:34 13,6 12,5 1,4 NNO 8,0 1020,5 93 0,50 -
02:39 13,6 12,5 3,2 NW 6,4 1020,5 93 0,50 -
02:44 13,6 12,5 3,2 NNW 9,7 1020,5 93 0,50 -
02:49 13,6 12,5 6,4 NNW 8,0 1020,5 93 0,50 -
02:54 13,6 12,5 1,4 NNO 11,3 1020,5 93 0,50 -
02:59 13,6 12,5 3,2 NNO 6,4 1020,9 93 0,50 -
03:04 13,5 12,4 3,2 NNW 4,8 1020,9 93 0,50 -
03:09 13,4 12,3 1,4 NNW 8,0 1020,9 93 0,30 -
03:14 13,4 12,3 4,7 Noorden 4,8 1020,9 93 - -
03:19 13,4 12,3 3,2 NW 4,8 1020,5 93 - -
03:24 13,3 12,2 1,4 Noorden 6,4 1020,9 93 - -
03:29 13,3 12,2 1,4 NW 4,8 1020,9 93 - -
03:34 13,3 12,2 3,2 NW 8,0 1020,9 93 - -
03:39 13,3 12,2 3,2 Noorden 4,8 1020,9 93 - -
03:44 13,2 12,1 4,7 Noorden 9,7 1020,9 93 - -
03:49 13,2 12,1 3,2 Noorden 8,0 1020,9 93 - -
03:54 13,2 11,9 1,4 Noorden 6,4 1020,9 92 - -
03:59 13,1 11,8 1,4 NW 6,4 1020,9 92 - -
04:04 13,1 11,8 4,7 NNW 9,7 1020,9 92 - -
04:09 13,0 11,7 4,7 Noorden 6,4 1020,9 92 - -
04:14 12,9 11,5 1,4 Noorden 4,8 1020,9 91 - -
04:19 12,9 11,5 3,2 Noorden 4,8 1020,9 91 - -
04:24 12,7 11,3 3,2 NNO 6,4 1020,9 91 - -
04:29 12,7 11,3 1,4 NNO 4,8 1020,9 91 - -
04:34 12,6 11,2 3,2 Noorden 6,4 1020,9 91 - -
04:39 12,6 11,3 1,4 Noorden 4,8 1020,9 92 - -
04:44 12,6 11,2 4,7 NNW 4,8 1021,2 91 - -
04:49 12,6 11,2 1,4 Noorden 4,8 1021,2 91 - -
04:54 12,5 11,2 3,2 Noorden 4,8 1021,2 92 - -
04:59 12,5 11,2 4,7 NNO 4,8 1021,2 92 - -
05:04 12,5 11,2 3,2 NNW 6,4 1021,2 92 - -
05:09 12,5 11,2 1,4 Noorden 6,4 1021,2 92 - -
05:14 12,5 11,2 1,4 NNW 4,8 1021,2 92 - -
05:19 12,5 11,2   Windstil 3,2 1021,2 92 - -
05:24 12,5 11,2 1,4 Noorden 4,8 1021,2 92 - -
05:29 12,4 11,1 4,7 Noorden 4,8 1021,2 92 - -
05:34 12,4 11,1 1,4 Noorden 6,4 1021,2 92 - -
05:39 12,3 10,9 3,2 Noorden 4,8 1021,2 91 - -
05:44 12,3 10,9 1,4 Noorden 4,8 1021,2 91 - -
05:49 12,3 11,0 3,2 Noorden 8,0 1021,2 92 - -
05:54 12,2 10,8 4,7 Noorden 4,8 1021,2 91 - -
05:59 12,2 10,8 1,4 Noorden 1,6 1021,2 91 - -
06:04 12,2 10,8 3,2 Noorden 3,2 1021,2 91 - -
06:09 12,2 10,8 1,4 Noorden 3,2 1021,2 91 - -
06:14 12,1 10,7   Windstil 3,2 1021,2 91 - -
06:19 12,1 10,7   Windstil 3,2 1021,2 91 - -
06:24 12,1 10,7 1,4 Noorden 3,2 1021,2 91 - -
06:29 12,0 10,6   Windstil 3,2 1021,2 91 - -
06:34 12,0 10,6 1,4 Noorden 3,2 1021,2 91 - -
06:39 12,0 10,6 3,2 Noorden 3,2 1021,2 91 - -
06:44 11,9 10,5 1,4 Noorden 3,2 1021,2 91 - -
06:49 11,8 10,4 1,4 Noorden 4,8 1021,2 91 - -
06:54 11,8 10,4 1,4 NNO 6,4 1021,6 91 - -
06:59 11,7 10,3 1,4 Noorden 6,4 1021,6 91 - -
07:04 11,7 10,3 1,4 Noorden 4,8 1021,6 91 - -
07:09 11,7 10,3 3,2 Noorden 4,8 1021,6 91 - -
07:14 11,7 10,3 1,4 Noorden 4,8 1021,9 91 - -
07:19 11,7 10,3   Windstil 3,2 1021,6 91 - -
07:24 11,7 10,3 4,7 NNW 4,8 1021,6 91 - -
07:29 11,7 10,3 3,2 Noorden 6,4 1021,6 91 - -
07:34 11,7 10,3 3,2 Noorden 4,8 1021,6 91 - -
07:39 11,7 10,3 3,2 Noorden 3,2 1021,9 91 - -
07:44 11,7 10,3 1,4 Noorden 4,8 1021,9 91 - -
07:49 11,7 10,3 4,7 NNW 6,4 1021,9 91 - -
07:54 11,6 10,0 3,2 Noorden 6,4 1022,2 90 - -
07:59 11,5 9,9 4,7 NNO 6,4 1022,2 90 - -
08:04 11,5 9,9 1,4 NNO 6,4 1022,2 90 - -
08:09 11,4 9,8   Windstil 4,8 1022,2 90 - 5
08:14 11,4 9,8   Windstil 4,8 1022,2 90 - 5
08:19 11,3 9,7 1,4 Noorden 3,2 1022,6 90 - 9
08:24 11,2 9,6 1,4 Noorden 3,2 1022,6 90 - 11
08:29 11,2 9,6 3,2 Noorden 3,2 1022,6 90 - 16
08:34 11,1 9,5   Windstil 3,2 1022,6 90 - 23
08:39 11,1 9,5 1,4 Noorden 3,2 1022,6 90 - 25
08:44 11,1 9,5 1,4 Noorden 4,8 1022,6 90 - 21
08:49 11,2 9,6 3,2 Noorden 6,4 1022,6 90 - 25
08:54 11,2 9,6 6,4 NNO 9,7 1022,6 90 - 30
08:59 11,3 9,7 3,2 NNO 8,0 1022,6 90 - 30
09:04 11,5 9,9 1,4 NNO 11,3 1022,6 90 - 30
09:09 11,7 9,9 4,7 NNO 11,3 1022,9 89 - 33
09:14 11,8 10,0 7,9 NNO 8,0 1022,9 89 - 42
09:19 12,0 10,1 9,7 Noorden 14,5 1022,9 88 - 40
09:24 12,1 10,0 4,7 NNO 9,7 1022,9 87 - 40
09:29 12,3 10,0 3,2 NNO 8,0 1022,9 86 - 49
09:34 12,4 10,1 3,2 NNO 6,4 1023,2 86 - 53
09:39 12,5 10,2 1,4 NNO 6,4 1023,2 86 - 53
09:44 12,6 10,3 4,7 NNO 6,4 1023,2 86 - 65
09:49 12,7 10,4 1,4 NNO 3,2 1023,2 86 - 69
09:54 12,8 10,5 4,7 Noorden 9,7 1023,2 86 - 69
09:59 12,8 10,5 1,4 Noorden 8,0 1023,2 86 - 67
10:04 12,9 10,4 6,4 NO 9,7 1023,2 85 - 72
10:09 13,0 10,5 7,9 NNO 8,0 1023,2 85 - 91
10:14 13,1 10,6 3,2 NNO 8,0 1023,2 85 - 104
10:19 13,2 10,7 3,2 NNO 6,4 1023,6 85 - 90
10:24 13,2 10,7 1,4 NNO 4,8 1023,6 85 - 93
10:29 13,3 10,8 3,2 NNO 6,4 1023,6 85 - 100
10:34 13,3 10,7 1,4 NNO 8,0 1023,6 84 - 104
10:39 13,4 10,8 1,4 NO 8,0 1023,6 84 - 118
10:44 13,5 10,8 3,2 NNO 9,7 1023,6 84 - 125
10:49 13,6 10,9 6,4 NNO 8,0 1023,6 84 - 111
10:54 13,7 10,9 6,4 NNO 11,3 1023,9 83 - 113
10:59 13,7 10,7   Windstil 8,0 1023,9 82 - 116
11:04 13,7 10,5 6,4 NNO 16,1 1023,9 81 - 100
11:09 13,8 10,6 6,4 NO 9,7 1023,9 81 - 120
11:14 13,8 10,6 6,4 Noorden 16,1 1023,9 81 - 134
11:19 13,8 10,6 4,7 NNO 12,9 1023,9 81 - 153
11:24 13,9 10,7 3,2 NNO 11,3 1023,9 81 - 151
11:29 13,9 10,3 11,1 NNO 19,3 1023,9 79 - 172
11:34 13,9 9,9 6,4 Noorden 16,1 1023,9 77 - 192
11:39 14,0 10,0 6,4 NNW 12,9 1023,9 77 - 213
11:44 14,1 10,3 4,7 Noorden 8,0 1023,9 78 - 216
11:49 14,2 10,4 4,7 NNO 11,3 1023,9 78 - 178
11:54 14,3 10,5 4,7 Noorden 16,1 1023,9 78 - 142
11:59 14,3 10,5 6,4 NNO 8,0 1023,9 78 - 163
12:04 14,4 10,4 4,7 NO 14,5 1023,9 77 - 176
12:09 14,4 10,2 11,1 NNO 14,5 1023,9 76 - 183
12:14 14,4 10,2 4,7 NNO 8,0 1024,3 76 - 162
12:19 14,4 10,2 3,2 Noorden 11,3 1024,3 76 - 169
12:24 14,4 10,0 9,7 Noorden 11,3 1024,3 75 - 225
12:29 14,6 10,4 6,4 NO 8,0 1024,3 76 - 213
12:34 14,6 10,4 6,4 NO 12,9 1024,3 76 - 186
12:39 14,6 10,4 3,2 NNO 6,4 1024,3 76 - 192
12:44 14,7 10,3 6,4 NNO 11,3 1024,3 75 - 172
12:49 14,7 10,3 3,2 Noorden 14,5 1024,3 75 - 214
12:54 14,8 10,2 11,1 NO 16,1 1024,3 74 - 202
12:59 14,8 10,2   Windstil 14,5 1023,9 74 - 360
13:04 14,8 10,4 6,4 NNO 16,1 1023,9 75 - 376
13:09 15,1 10,5 4,7 NNO 16,1 1023,9 74 - 483
13:14 15,2 10,4 7,9 Noorden 20,9 1023,9 73 - 146
13:19 15,2 10,4 4,7 NNO 14,5 1023,9 73 - 172
13:24 15,2 10,6 6,4 NO 17,7 1023,9 74 - 165
13:29 15,1 10,7 4,7 NNO 14,5 1023,9 75 - 155
13:34 15,1 10,9 17,7 NO 17,7 1023,9 76 - 239
13:39 15,1 10,5 11,1 NNO 17,7 1023,9 74 - 279
13:44 14,9 10,3 4,7 NNO 8,0 1023,9 74 - 181
13:49 15,0 10,6 4,7 Noorden 6,4 1023,9 75 - 346
13:54 15,1 10,7 7,9 Noorden 16,1 1023,9 75 - 327
13:59 15,1 10,7 7,9 NO 16,1 1023,9 75 - 315
14:04 15,1 10,7 6,4 NO 8,0 1023,6 75 - 323
14:09 15,2 10,4 6,4 Noorden 14,5 1023,9 73 - 381
14:14 15,3 10,5 7,9 NNO 14,5 1023,9 73 - 274
14:19 15,3 10,9 6,4 NO 16,1 1023,9 75 - 381
14:24 15,3 10,9 6,4 NNO 14,5 1023,9 75 - 176
14:29 15,3 10,7 4,7 Oosten 14,5 1023,9 74 - 134
14:34 15,3 10,7 7,9 NO 8,0 1023,9 74 - 295
14:39 15,3 10,5 4,7 Oosten 12,9 1023,9 73 - 248
14:44 15,3 10,3 13,0 NNO 12,9 1023,9 72 - 288
14:49 15,2 10,2 3,2 NNO 14,5 1023,9 72 - 311
14:54 15,2 10,2 3,2 NO 8,0 1023,9 72 - 431
14:59 15,4 10,6 11,1 NO 19,3 1023,9 73 - 392
15:04 15,5 10,3 6,4 Noorden 14,5 1023,9 71 - 105
15:09 15,4 10,2 4,7 NO 9,7 1023,9 71 - 104
15:14 15,3 10,1 1,4 NO 16,1 1023,9 71 - 100
15:19 15,2 10,0 6,4 NO 17,7 1023,9 71 - 230
15:24 15,2 10,6 7,9 NNO 19,3 1023,9 74 - 98
15:29 15,1 10,5 6,4 NO 11,3 1023,9 74 - 86
15:34 14,9 10,5 7,9 Noorden 16,1 1023,9 75 - 91
15:39 14,9 10,3 1,4 NO 16,1 1023,9 74 - 77
15:44 15,1 10,5 6,4 Oosten 9,7 1023,9 74 - 102
15:49 15,1 10,7 14,3 NO 14,5 1023,9 75 - 149
15:54 15,2 10,4 6,4 NNO 16,1 1023,9 73 - 98
15:59 15,2 10,6 13,0 NNO 14,5 1023,9 74 - 79
16:04 15,1 10,5 4,7 NNO 6,4 1023,9 74 - 42
16:09 14,9 10,3 9,7 NO 11,3 1023,9 74 - 39
16:14 14,7 10,3 4,7 NNO 8,0 1023,9 75 - 46

Download your copy of this data-set  here

Our weather-data as stored at Weather Underground. Script ontwikkeld door Jim McMurry. Aangepast voor de template door Leuven-Template.eu

U vindt ons ook hier:

Het Weer Aktueel

UK Metoffice

European Weather Network

Weather Underground

AWEKAS

Citizen Weather Observer Program (CWOP)

HAMweather, WeatherForYou, PWS Weather

Apparatuur in gebruik:

Weerstation
Davis Vantage pro 2

Weerprogramma
Meteobridge

Weercomputer
TP-Link TL-WR703N

Webleverancier
Versio

Davis Vantage pro 2

Meteobridge

TP-Link TL-WR703N

Versio